sensor_id;sensor_type;location;lat;lon;timestamp;temperature;humidity
22532;DHT22;11432;46.924;7.114;2022-10-16T00:01:16;14.60;99.90
22532;DHT22;11432;46.924;7.114;2022-10-16T00:03:43;14.60;99.90
22532;DHT22;11432;46.924;7.114;2022-10-16T00:06:09;14.50;99.90
22532;DHT22;11432;46.924;7.114;2022-10-16T00:08:36;14.50;99.90
22532;DHT22;11432;46.924;7.114;2022-10-16T00:11:06;14.40;88.80
22532;DHT22;11432;46.924;7.114;2022-10-16T00:13:34;14.40;99.90
22532;DHT22;11432;46.924;7.114;2022-10-16T00:16:01;14.30;99.90
22532;DHT22;11432;46.924;7.114;2022-10-16T00:18:28;14.30;99.90
22532;DHT22;11432;46.924;7.114;2022-10-16T00:20:54;14.30;99.90
22532;DHT22;11432;46.924;7.114;2022-10-16T00:23:21;14.30;99.90
22532;DHT22;11432;46.924;7.114;2022-10-16T00:26:04;14.30;99.90
22532;DHT22;11432;46.924;7.114;2022-10-16T00:28:31;14.20;99.90
22532;DHT22;11432;46.924;7.114;2022-10-16T00:30:57;14.10;99.90
22532;DHT22;11432;46.924;7.114;2022-10-16T00:33:23;14.10;99.90
22532;DHT22;11432;46.924;7.114;2022-10-16T00:35:48;14.10;99.90
22532;DHT22;11432;46.924;7.114;2022-10-16T00:38:14;14.10;99.90
22532;DHT22;11432;46.924;7.114;2022-10-16T00:40:40;14.10;99.90
22532;DHT22;11432;46.924;7.114;2022-10-16T00:45:59;14.00;99.90
22532;DHT22;11432;46.924;7.114;2022-10-16T00:48:25;13.90;99.90
22532;DHT22;11432;46.924;7.114;2022-10-16T00:50:52;13.90;99.90
22532;DHT22;11432;46.924;7.114;2022-10-16T00:53:18;13.90;99.90
22532;DHT22;11432;46.924;7.114;2022-10-16T00:55:44;13.90;99.90
22532;DHT22;11432;46.924;7.114;2022-10-16T00:58:11;13.90;99.90
22532;DHT22;11432;46.924;7.114;2022-10-16T01:00:37;13.80;99.90
22532;DHT22;11432;46.924;7.114;2022-10-16T01:03:21;13.80;99.90
22532;DHT22;11432;46.924;7.114;2022-10-16T01:05:52;13.80;99.90
22532;DHT22;11432;46.924;7.114;2022-10-16T01:11:36;13.70;99.90
22532;DHT22;11432;46.924;7.114;2022-10-16T01:14:15;13.60;99.90
22532;DHT22;11432;46.924;7.114;2022-10-16T01:16:51;13.60;99.90
22532;DHT22;11432;46.924;7.114;2022-10-16T01:19:32;13.60;99.90
22532;DHT22;11432;46.924;7.114;2022-10-16T01:22:03;13.50;99.90
22532;DHT22;11432;46.924;7.114;2022-10-16T01:24:39;13.50;99.90
22532;DHT22;11432;46.924;7.114;2022-10-16T01:27:30;13.50;99.90
22532;DHT22;11432;46.924;7.114;2022-10-16T01:30:10;13.40;99.90
22532;DHT22;11432;46.924;7.114;2022-10-16T01:32:49;13.40;99.90
22532;DHT22;11432;46.924;7.114;2022-10-16T01:35:34;13.40;99.90
22532;DHT22;11432;46.924;7.114;2022-10-16T01:38:21;13.40;99.90
22532;DHT22;11432;46.924;7.114;2022-10-16T01:40:51;13.40;99.90
22532;DHT22;11432;46.924;7.114;2022-10-16T01:43:22;13.40;99.90
22532;DHT22;11432;46.924;7.114;2022-10-16T01:45:49;13.40;99.90
22532;DHT22;11432;46.924;7.114;2022-10-16T01:48:18;13.30;99.90
22532;DHT22;11432;46.924;7.114;2022-10-16T01:53:34;13.40;99.90
22532;DHT22;11432;46.924;7.114;2022-10-16T01:56:02;13.40;99.90
22532;DHT22;11432;46.924;7.114;2022-10-16T01:58:30;13.40;99.90
22532;DHT22;11432;46.924;7.114;2022-10-16T02:01:00;13.40;99.90
22532;DHT22;11432;46.924;7.114;2022-10-16T02:03:26;13.40;99.90
22532;DHT22;11432;46.924;7.114;2022-10-16T02:05:56;13.40;99.90
22532;DHT22;11432;46.924;7.114;2022-10-16T02:08:25;13.50;99.90
22532;DHT22;11432;46.924;7.114;2022-10-16T02:10:55;13.50;99.90
22532;DHT22;11432;46.924;7.114;2022-10-16T02:15:58;13.60;99.90
22532;DHT22;11432;46.924;7.114;2022-10-16T02:18:24;13.70;99.90
22532;DHT22;11432;46.924;7.114;2022-10-16T02:21:13;13.70;99.90
22532;DHT22;11432;46.924;7.114;2022-10-16T02:26:19;13.70;99.90
22532;DHT22;11432;46.924;7.114;2022-10-16T02:28:53;13.60;99.90
22532;DHT22;11432;46.924;7.114;2022-10-16T02:31:24;13.70;99.90
22532;DHT22;11432;46.924;7.114;2022-10-16T02:33:55;13.70;99.90
22532;DHT22;11432;46.924;7.114;2022-10-16T02:36:21;13.70;99.90
22532;DHT22;11432;46.924;7.114;2022-10-16T02:38:47;13.70;99.90
22532;DHT22;11432;46.924;7.114;2022-10-16T02:41:14;13.70;99.90
22532;DHT22;11432;46.924;7.114;2022-10-16T02:43:39;13.70;99.90
22532;DHT22;11432;46.924;7.114;2022-10-16T02:46:05;13.70;99.90
22532;DHT22;11432;46.924;7.114;2022-10-16T02:48:31;13.70;99.90
22532;DHT22;11432;46.924;7.114;2022-10-16T02:50:57;13.70;99.90
22532;DHT22;11432;46.924;7.114;2022-10-16T02:53:22;13.70;99.90
22532;DHT22;11432;46.924;7.114;2022-10-16T02:55:48;13.70;99.90
22532;DHT22;11432;46.924;7.114;2022-10-16T02:58:14;13.70;99.90
22532;DHT22;11432;46.924;7.114;2022-10-16T03:00:39;13.70;99.90
22532;DHT22;11432;46.924;7.114;2022-10-16T03:03:05;13.70;99.90
22532;DHT22;11432;46.924;7.114;2022-10-16T03:05:31;13.70;99.90
22532;DHT22;11432;46.924;7.114;2022-10-16T03:07:57;13.80;99.90
22532;DHT22;11432;46.924;7.114;2022-10-16T03:10:25;13.80;99.90
22532;DHT22;11432;46.924;7.114;2022-10-16T03:12:50;13.80;99.90
22532;DHT22;11432;46.924;7.114;2022-10-16T03:15:16;13.80;99.90
22532;DHT22;11432;46.924;7.114;2022-10-16T03:17:42;13.80;99.90
22532;DHT22;11432;46.924;7.114;2022-10-16T03:20:08;13.80;99.90
22532;DHT22;11432;46.924;7.114;2022-10-16T03:22:34;13.70;99.90
22532;DHT22;11432;46.924;7.114;2022-10-16T03:24:59;13.70;99.90
22532;DHT22;11432;46.924;7.114;2022-10-16T03:27:25;13.70;99.90
22532;DHT22;11432;46.924;7.114;2022-10-16T03:29:51;13.70;99.90
22532;DHT22;11432;46.924;7.114;2022-10-16T03:32:16;13.70;99.90
22532;DHT22;11432;46.924;7.114;2022-10-16T03:34:42;13.70;99.90
22532;DHT22;11432;46.924;7.114;2022-10-16T03:37:07;13.70;99.90
22532;DHT22;11432;46.924;7.114;2022-10-16T03:39:33;13.70;99.90
22532;DHT22;11432;46.924;7.114;2022-10-16T03:41:58;13.70;99.90
22532;DHT22;11432;46.924;7.114;2022-10-16T03:44:24;13.70;99.90
22532;DHT22;11432;46.924;7.114;2022-10-16T03:46:50;13.70;99.90
22532;DHT22;11432;46.924;7.114;2022-10-16T03:49:15;13.70;99.90
22532;DHT22;11432;46.924;7.114;2022-10-16T03:51:41;13.70;99.90
22532;DHT22;11432;46.924;7.114;2022-10-16T03:54:06;13.70;99.90
22532;DHT22;11432;46.924;7.114;2022-10-16T03:56:32;13.70;99.90
22532;DHT22;11432;46.924;7.114;2022-10-16T03:58:58;13.70;99.90
22532;DHT22;11432;46.924;7.114;2022-10-16T04:01:23;13.70;99.90
22532;DHT22;11432;46.924;7.114;2022-10-16T04:03:49;13.60;99.90
22532;DHT22;11432;46.924;7.114;2022-10-16T04:06:14;13.60;99.90
22532;DHT22;11432;46.924;7.114;2022-10-16T04:08:42;13.60;99.90
22532;DHT22;11432;46.924;7.114;2022-10-16T04:11:08;13.70;99.90
22532;DHT22;11432;46.924;7.114;2022-10-16T04:13:34;13.70;99.90
22532;DHT22;11432;46.924;7.114;2022-10-16T04:15:59;13.60;99.90
22532;DHT22;11432;46.924;7.114;2022-10-16T04:18:25;13.70;99.90
22532;DHT22;11432;46.924;7.114;2022-10-16T04:20:53;13.60;99.90
22532;DHT22;11432;46.924;7.114;2022-10-16T04:23:18;13.60;99.90
22532;DHT22;11432;46.924;7.114;2022-10-16T04:25:44;13.60;99.90
22532;DHT22;11432;46.924;7.114;2022-10-16T04:28:09;13.60;99.90
22532;DHT22;11432;46.924;7.114;2022-10-16T04:30:38;13.50;99.90
22532;DHT22;11432;46.924;7.114;2022-10-16T04:33:04;13.50;99.90
22532;DHT22;11432;46.924;7.114;2022-10-16T04:35:30;13.50;99.90
22532;DHT22;11432;46.924;7.114;2022-10-16T04:37:57;13.50;99.90
22532;DHT22;11432;46.924;7.114;2022-10-16T04:40:23;13.50;99.90
22532;DHT22;11432;46.924;7.114;2022-10-16T04:42:49;13.50;99.90
22532;DHT22;11432;46.924;7.114;2022-10-16T04:45:14;13.50;99.90
22532;DHT22;11432;46.924;7.114;2022-10-16T04:47:40;13.50;99.90
22532;DHT22;11432;46.924;7.114;2022-10-16T04:50:06;13.50;99.90
22532;DHT22;11432;46.924;7.114;2022-10-16T04:52:32;13.50;99.90
22532;DHT22;11432;46.924;7.114;2022-10-16T04:54:58;13.50;99.90
22532;DHT22;11432;46.924;7.114;2022-10-16T04:57:27;13.40;99.90
22532;DHT22;11432;46.924;7.114;2022-10-16T04:59:52;13.40;99.90
22532;DHT22;11432;46.924;7.114;2022-10-16T05:02:18;13.40;99.90
22532;DHT22;11432;46.924;7.114;2022-10-16T05:04:44;13.40;99.90
22532;DHT22;11432;46.924;7.114;2022-10-16T05:07:09;13.30;99.90
22532;DHT22;11432;46.924;7.114;2022-10-16T05:09:35;13.30;99.90
22532;DHT22;11432;46.924;7.114;2022-10-16T05:12:00;13.40;99.90
22532;DHT22;11432;46.924;7.114;2022-10-16T05:14:26;13.30;99.90
22532;DHT22;11432;46.924;7.114;2022-10-16T05:16:52;13.30;99.90
22532;DHT22;11432;46.924;7.114;2022-10-16T05:19:17;13.30;99.90
22532;DHT22;11432;46.924;7.114;2022-10-16T05:21:43;13.30;99.90
22532;DHT22;11432;46.924;7.114;2022-10-16T05:24:08;13.30;99.90
22532;DHT22;11432;46.924;7.114;2022-10-16T05:26:34;13.30;99.90
22532;DHT22;11432;46.924;7.114;2022-10-16T05:29:00;13.20;99.90
22532;DHT22;11432;46.924;7.114;2022-10-16T05:31:26;13.20;99.90
22532;DHT22;11432;46.924;7.114;2022-10-16T05:33:51;13.20;99.90
22532;DHT22;11432;46.924;7.114;2022-10-16T05:36:17;13.20;99.90
22532;DHT22;11432;46.924;7.114;2022-10-16T05:38:43;13.20;99.90
22532;DHT22;11432;46.924;7.114;2022-10-16T05:41:09;13.20;99.90
22532;DHT22;11432;46.924;7.114;2022-10-16T05:43:35;13.20;99.90
22532;DHT22;11432;46.924;7.114;2022-10-16T05:46:03;13.20;99.90
22532;DHT22;11432;46.924;7.114;2022-10-16T05:48:29;13.30;99.90
22532;DHT22;11432;46.924;7.114;2022-10-16T05:51:01;13.30;99.90
22532;DHT22;11432;46.924;7.114;2022-10-16T05:53:29;13.30;99.90
22532;DHT22;11432;46.924;7.114;2022-10-16T05:55:56;13.30;99.90
22532;DHT22;11432;46.924;7.114;2022-10-16T05:58:22;13.30;99.90
22532;DHT22;11432;46.924;7.114;2022-10-16T06:01:15;13.30;99.90
22532;DHT22;11432;46.924;7.114;2022-10-16T06:03:41;13.30;99.90
22532;DHT22;11432;46.924;7.114;2022-10-16T06:06:12;13.20;99.90
22532;DHT22;11432;46.924;7.114;2022-10-16T06:08:39;13.20;99.90
22532;DHT22;11432;46.924;7.114;2022-10-16T06:11:07;13.20;99.90
22532;DHT22;11432;46.924;7.114;2022-10-16T06:13:33;13.20;99.90
22532;DHT22;11432;46.924;7.114;2022-10-16T06:16:00;13.20;99.90
22532;DHT22;11432;46.924;7.114;2022-10-16T06:18:27;13.30;99.90
22532;DHT22;11432;46.924;7.114;2022-10-16T06:20:53;13.30;99.90
22532;DHT22;11432;46.924;7.114;2022-10-16T06:23:18;13.30;99.90
22532;DHT22;11432;46.924;7.114;2022-10-16T06:25:44;13.40;99.90
22532;DHT22;11432;46.924;7.114;2022-10-16T06:28:10;13.40;99.90
22532;DHT22;11432;46.924;7.114;2022-10-16T06:30:35;13.40;99.90
22532;DHT22;11432;46.924;7.114;2022-10-16T06:33:01;13.50;99.90
22532;DHT22;11432;46.924;7.114;2022-10-16T06:35:26;13.50;99.90
22532;DHT22;11432;46.924;7.114;2022-10-16T06:37:53;13.50;99.90
22532;DHT22;11432;46.924;7.114;2022-10-16T06:40:18;13.60;99.90
22532;DHT22;11432;46.924;7.114;2022-10-16T06:42:44;13.60;99.90
22532;DHT22;11432;46.924;7.114;2022-10-16T06:45:10;13.60;99.90
22532;DHT22;11432;46.924;7.114;2022-10-16T06:47:36;13.70;99.90
22532;DHT22;11432;46.924;7.114;2022-10-16T06:50:02;13.70;99.90
22532;DHT22;11432;46.924;7.114;2022-10-16T06:52:29;13.70;99.90
22532;DHT22;11432;46.924;7.114;2022-10-16T06:54:54;13.70;99.90
22532;DHT22;11432;46.924;7.114;2022-10-16T06:57:20;13.70;99.90
22532;DHT22;11432;46.924;7.114;2022-10-16T06:59:45;13.70;99.90
22532;DHT22;11432;46.924;7.114;2022-10-16T07:02:11;13.80;99.90
22532;DHT22;11432;46.924;7.114;2022-10-16T07:04:37;13.90;99.90
22532;DHT22;11432;46.924;7.114;2022-10-16T07:07:02;13.90;99.90
22532;DHT22;11432;46.924;7.114;2022-10-16T07:09:28;14.00;99.90
22532;DHT22;11432;46.924;7.114;2022-10-16T07:11:54;14.10;99.90
22532;DHT22;11432;46.924;7.114;2022-10-16T07:14:21;14.10;99.90
22532;DHT22;11432;46.924;7.114;2022-10-16T07:16:47;14.10;99.90
22532;DHT22;11432;46.924;7.114;2022-10-16T07:19:14;14.20;99.90
22532;DHT22;11432;46.924;7.114;2022-10-16T07:21:41;14.20;99.90
22532;DHT22;11432;46.924;7.114;2022-10-16T07:24:11;14.20;99.90
22532;DHT22;11432;46.924;7.114;2022-10-16T07:26:38;14.10;99.90
22532;DHT22;11432;46.924;7.114;2022-10-16T07:29:06;14.10;99.90
22532;DHT22;11432;46.924;7.114;2022-10-16T07:31:32;14.10;99.90
22532;DHT22;11432;46.924;7.114;2022-10-16T07:33:58;14.10;99.90
22532;DHT22;11432;46.924;7.114;2022-10-16T07:36:24;14.00;99.90
22532;DHT22;11432;46.924;7.114;2022-10-16T07:38:50;14.00;99.90
22532;DHT22;11432;46.924;7.114;2022-10-16T07:41:18;13.90;99.90
22532;DHT22;11432;46.924;7.114;2022-10-16T07:43:52;13.90;99.90
22532;DHT22;11432;46.924;7.114;2022-10-16T07:46:19;13.90;99.90
22532;DHT22;11432;46.924;7.114;2022-10-16T07:48:46;13.90;99.90
22532;DHT22;11432;46.924;7.114;2022-10-16T07:51:17;13.80;99.90
22532;DHT22;11432;46.924;7.114;2022-10-16T07:53:43;13.80;99.90
22532;DHT22;11432;46.924;7.114;2022-10-16T07:56:09;13.80;99.90
22532;DHT22;11432;46.924;7.114;2022-10-16T07:58:35;13.70;99.90
22532;DHT22;11432;46.924;7.114;2022-10-16T08:01:10;13.70;99.90
22532;DHT22;11432;46.924;7.114;2022-10-16T08:03:36;13.70;99.90
22532;DHT22;11432;46.924;7.114;2022-10-16T08:06:03;13.70;99.90
22532;DHT22;11432;46.924;7.114;2022-10-16T08:08:38;13.80;99.90
22532;DHT22;11432;46.924;7.114;2022-10-16T08:11:04;14.00;99.90
22532;DHT22;11432;46.924;7.114;2022-10-16T08:13:30;14.10;99.90
22532;DHT22;11432;46.924;7.114;2022-10-16T08:15:56;14.20;99.90
22532;DHT22;11432;46.924;7.114;2022-10-16T08:18:22;14.30;99.90
22532;DHT22;11432;46.924;7.114;2022-10-16T08:23:15;14.70;99.90
22532;DHT22;11432;46.924;7.114;2022-10-16T08:25:41;14.80;60.30
22532;DHT22;11432;46.924;7.114;2022-10-16T08:28:09;14.90;33.90
22532;DHT22;11432;46.924;7.114;2022-10-16T08:30:35;15.10;51.40
22532;DHT22;11432;46.924;7.114;2022-10-16T08:33:02;15.30;7.10
22532;DHT22;11432;46.924;7.114;2022-10-16T08:35:27;15.50;1.00
22532;DHT22;11432;46.924;7.114;2022-10-16T08:37:53;15.60;1.00
22532;DHT22;11432;46.924;7.114;2022-10-16T08:40:19;15.60;1.00
22532;DHT22;11432;46.924;7.114;2022-10-16T08:48:33;16.10;1.00
22532;DHT22;11432;46.924;7.114;2022-10-16T08:51:02;16.30;1.00
22532;DHT22;11432;46.924;7.114;2022-10-16T08:56:07;16.50;1.00
22532;DHT22;11432;46.924;7.114;2022-10-16T08:58:33;16.60;1.00
22532;DHT22;11432;46.924;7.114;2022-10-16T09:01:03;16.80;1.00
22532;DHT22;11432;46.924;7.114;2022-10-16T09:09:46;17.40;1.00
22532;DHT22;11432;46.924;7.114;2022-10-16T09:12:38;17.50;1.00
22532;DHT22;11432;46.924;7.114;2022-10-16T09:21:00;16.40;1.00
22532;DHT22;11432;46.924;7.114;2022-10-16T09:23:29;16.30;1.00
22532;DHT22;11432;46.924;7.114;2022-10-16T09:25:56;16.10;1.00
22532;DHT22;11432;46.924;7.114;2022-10-16T09:28:23;16.10;1.00
22532;DHT22;11432;46.924;7.114;2022-10-16T09:30:49;16.20;1.00
22532;DHT22;11432;46.924;7.114;2022-10-16T09:33:17;16.30;1.00
22532;DHT22;11432;46.924;7.114;2022-10-16T09:35:50;16.50;1.00
22532;DHT22;11432;46.924;7.114;2022-10-16T09:38:29;16.60;1.00
22532;DHT22;11432;46.924;7.114;2022-10-16T09:40:56;16.90;1.00
22532;DHT22;11432;46.924;7.114;2022-10-16T09:46:02;17.20;1.00
22532;DHT22;11432;46.924;7.114;2022-10-16T09:48:36;17.40;1.00
22532;DHT22;11432;46.924;7.114;2022-10-16T09:51:04;17.60;1.00
22532;DHT22;11432;46.924;7.114;2022-10-16T09:56:05;18.00;1.00
22532;DHT22;11432;46.924;7.114;2022-10-16T09:58:32;18.10;1.00
22532;DHT22;11432;46.924;7.114;2022-10-16T10:00:59;18.30;1.00
22532;DHT22;11432;46.924;7.114;2022-10-16T10:06:35;18.50;1.00
22532;DHT22;11432;46.924;7.114;2022-10-16T10:11:43;18.80;1.00
22532;DHT22;11432;46.924;7.114;2022-10-16T10:19:48;19.10;1.00
22532;DHT22;11432;46.924;7.114;2022-10-16T10:22:24;19.40;5.80
22532;DHT22;11432;46.924;7.114;2022-10-16T10:36:28;20.20;29.70
22532;DHT22;11432;46.924;7.114;2022-10-16T10:39:17;20.80;25.70
22532;DHT22;11432;46.924;7.114;2022-10-16T10:52:57;24.00;42.40
22532;DHT22;11432;46.924;7.114;2022-10-16T11:01:10;24.60;60.20
22532;DHT22;11432;46.924;7.114;2022-10-16T11:06:28;25.00;55.90
22532;DHT22;11432;46.924;7.114;2022-10-16T11:11:49;25.50;55.70
22532;DHT22;11432;46.924;7.114;2022-10-16T11:19:58;23.30;35.40
22532;DHT22;11432;46.924;7.114;2022-10-16T11:22:31;23.00;40.90
22532;DHT22;11432;46.924;7.114;2022-10-16T11:28:24;23.70;34.80
22532;DHT22;11432;46.924;7.114;2022-10-16T11:30:59;23.60;16.80
22532;DHT22;11432;46.924;7.114;2022-10-16T11:34:43;23.70;17.00
22532;DHT22;11432;46.924;7.114;2022-10-16T11:36:45;24.10;17.00
22532;DHT22;11432;46.924;7.114;2022-10-16T11:39:27;24.60;16.40
22532;DHT22;11432;46.924;7.114;2022-10-16T11:42:04;25.10;24.70
22532;DHT22;11432;46.924;7.114;2022-10-16T11:44:57;25.50;27.70
22532;DHT22;11432;46.924;7.114;2022-10-16T11:47:39;25.80;31.60
22532;DHT22;11432;46.924;7.114;2022-10-16T11:55:48;26.30;34.00
22532;DHT22;11432;46.924;7.114;2022-10-16T11:58:27;26.20;27.10
22532;DHT22;11432;46.924;7.114;2022-10-16T12:03:44;25.90;22.50
22532;DHT22;11432;46.924;7.114;2022-10-16T12:08:52;25.40;17.50
22532;DHT22;11432;46.924;7.114;2022-10-16T12:14:17;25.40;12.60
22532;DHT22;11432;46.924;7.114;2022-10-16T12:17:01;25.20;16.00
22532;DHT22;11432;46.924;7.114;2022-10-16T12:19:29;24.90;13.50
22532;DHT22;11432;46.924;7.114;2022-10-16T12:21:57;25.10;14.50
22532;DHT22;11432;46.924;7.114;2022-10-16T12:26:57;26.20;12.90
22532;DHT22;11432;46.924;7.114;2022-10-16T12:29:34;26.60;27.90
22532;DHT22;11432;46.924;7.114;2022-10-16T12:32:00;26.40;29.80
22532;DHT22;11432;46.924;7.114;2022-10-16T12:34:32;26.60;16.80
22532;DHT22;11432;46.924;7.114;2022-10-16T12:37:21;27.00;19.60
22532;DHT22;11432;46.924;7.114;2022-10-16T12:39:49;26.30;12.20
22532;DHT22;11432;46.924;7.114;2022-10-16T12:44:53;26.10;17.40
22532;DHT22;11432;46.924;7.114;2022-10-16T12:47:47;26.20;16.60
22532;DHT22;11432;46.924;7.114;2022-10-16T12:52:52;26.80;14.00
22532;DHT22;11432;46.924;7.114;2022-10-16T12:55:20;26.90;16.90
22532;DHT22;11432;46.924;7.114;2022-10-16T13:00:40;27.90;20.80
22532;DHT22;11432;46.924;7.114;2022-10-16T13:06:04;28.30;18.50
22532;DHT22;11432;46.924;7.114;2022-10-16T13:22:34;27.10;1.00
22532;DHT22;11432;46.924;7.114;2022-10-16T13:28:05;27.70;15.80
22532;DHT22;11432;46.924;7.114;2022-10-16T13:30:41;27.60;1.00
22532;DHT22;11432;46.924;7.114;2022-10-16T13:33:14;27.40;1.00
22532;DHT22;11432;46.924;7.114;2022-10-16T13:35:53;27.40;1.00
22532;DHT22;11432;46.924;7.114;2022-10-16T13:38:25;27.40;1.00
22532;DHT22;11432;46.924;7.114;2022-10-16T13:40:56;27.00;1.00
22532;DHT22;11432;46.924;7.114;2022-10-16T13:43:35;27.20;1.00
22532;DHT22;11432;46.924;7.114;2022-10-16T13:48:28;27.60;1.00
22532;DHT22;11432;46.924;7.114;2022-10-16T13:51:01;27.70;1.00
22532;DHT22;11432;46.924;7.114;2022-10-16T13:53:29;27.80;1.00
22532;DHT22;11432;46.924;7.114;2022-10-16T13:55:55;28.20;1.00
22532;DHT22;11432;46.924;7.114;2022-10-16T13:58:21;28.50;1.00
22532;DHT22;11432;46.924;7.114;2022-10-16T14:00:58;28.50;1.00
22532;DHT22;11432;46.924;7.114;2022-10-16T14:03:25;28.90;1.00
22532;DHT22;11432;46.924;7.114;2022-10-16T14:05:57;29.50;1.00
22532;DHT22;11432;46.924;7.114;2022-10-16T14:08:25;29.40;1.00
22532;DHT22;11432;46.924;7.114;2022-10-16T14:10:53;29.80;1.00
22532;DHT22;11432;46.924;7.114;2022-10-16T14:13:34;30.20;1.00
22532;DHT22;11432;46.924;7.114;2022-10-16T14:16:07;30.00;1.00
22532;DHT22;11432;46.924;7.114;2022-10-16T14:18:33;29.20;1.00
22532;DHT22;11432;46.924;7.114;2022-10-16T14:21:04;28.40;1.00
22532;DHT22;11432;46.924;7.114;2022-10-16T14:23:37;27.40;1.00
22532;DHT22;11432;46.924;7.114;2022-10-16T14:28:37;25.40;1.00
22532;DHT22;11432;46.924;7.114;2022-10-16T14:31:27;24.90;1.00
22532;DHT22;11432;46.924;7.114;2022-10-16T14:33:53;24.60;1.00
22532;DHT22;11432;46.924;7.114;2022-10-16T14:36:18;24.60;1.00
22532;DHT22;11432;46.924;7.114;2022-10-16T14:39:05;24.50;1.00
22532;DHT22;11432;46.924;7.114;2022-10-16T14:41:35;24.50;1.00
22532;DHT22;11432;46.924;7.114;2022-10-16T14:44:06;24.50;1.00
22532;DHT22;11432;46.924;7.114;2022-10-16T14:46:37;24.40;1.00
22532;DHT22;11432;46.924;7.114;2022-10-16T14:49:26;24.30;1.00
22532;DHT22;11432;46.924;7.114;2022-10-16T14:51:51;24.20;1.00
22532;DHT22;11432;46.924;7.114;2022-10-16T14:54:18;24.00;1.00
22532;DHT22;11432;46.924;7.114;2022-10-16T14:56:48;23.90;1.00
22532;DHT22;11432;46.924;7.114;2022-10-16T14:59:26;23.90;1.00
22532;DHT22;11432;46.924;7.114;2022-10-16T15:01:53;24.00;1.00
22532;DHT22;11432;46.924;7.114;2022-10-16T15:04:19;24.00;1.00
22532;DHT22;11432;46.924;7.114;2022-10-16T15:06:44;24.00;1.00
22532;DHT22;11432;46.924;7.114;2022-10-16T15:09:10;23.90;1.00
22532;DHT22;11432;46.924;7.114;2022-10-16T15:11:36;23.80;1.00
22532;DHT22;11432;46.924;7.114;2022-10-16T15:14:02;23.60;1.00
22532;DHT22;11432;46.924;7.114;2022-10-16T15:16:29;23.50;1.00
22532;DHT22;11432;46.924;7.114;2022-10-16T15:18:55;23.50;1.00
22532;DHT22;11432;46.924;7.114;2022-10-16T15:21:24;23.40;1.00
22532;DHT22;11432;46.924;7.114;2022-10-16T15:23:51;23.40;1.00
22532;DHT22;11432;46.924;7.114;2022-10-16T15:26:17;23.40;1.00
22532;DHT22;11432;46.924;7.114;2022-10-16T15:28:43;23.30;1.00
22532;DHT22;11432;46.924;7.114;2022-10-16T15:31:09;23.20;1.00
22532;DHT22;11432;46.924;7.114;2022-10-16T15:33:34;23.20;1.00
22532;DHT22;11432;46.924;7.114;2022-10-16T15:36:01;23.10;1.00
22532;DHT22;11432;46.924;7.114;2022-10-16T15:38:28;23.20;1.00
22532;DHT22;11432;46.924;7.114;2022-10-16T15:40:55;23.10;1.00
22532;DHT22;11432;46.924;7.114;2022-10-16T15:43:21;23.00;1.00
22532;DHT22;11432;46.924;7.114;2022-10-16T15:46:00;22.90;1.00
22532;DHT22;11432;46.924;7.114;2022-10-16T15:48:27;22.90;1.00
22532;DHT22;11432;46.924;7.114;2022-10-16T15:50:53;22.70;1.00
22532;DHT22;11432;46.924;7.114;2022-10-16T15:53:19;22.70;1.00
22532;DHT22;11432;46.924;7.114;2022-10-16T15:55:44;22.70;1.00
22532;DHT22;11432;46.924;7.114;2022-10-16T15:58:10;22.60;1.00
22532;DHT22;11432;46.924;7.114;2022-10-16T16:00:35;22.50;1.00
22532;DHT22;11432;46.924;7.114;2022-10-16T16:03:01;22.40;1.00
22532;DHT22;11432;46.924;7.114;2022-10-16T16:05:27;22.30;1.00
22532;DHT22;11432;46.924;7.114;2022-10-16T16:07:53;22.10;1.00
22532;DHT22;11432;46.924;7.114;2022-10-16T16:10:19;22.00;1.00
22532;DHT22;11432;46.924;7.114;2022-10-16T16:12:47;21.90;1.00
22532;DHT22;11432;46.924;7.114;2022-10-16T16:15:20;21.90;1.00
22532;DHT22;11432;46.924;7.114;2022-10-16T16:17:46;21.90;1.00
22532;DHT22;11432;46.924;7.114;2022-10-16T16:20:12;21.80;1.00
22532;DHT22;11432;46.924;7.114;2022-10-16T16:22:38;21.70;1.00
22532;DHT22;11432;46.924;7.114;2022-10-16T16:25:04;21.70;1.00
22532;DHT22;11432;46.924;7.114;2022-10-16T16:27:29;21.60;1.00
22532;DHT22;11432;46.924;7.114;2022-10-16T16:29:59;21.50;1.00
22532;DHT22;11432;46.924;7.114;2022-10-16T16:32:24;21.40;1.00
22532;DHT22;11432;46.924;7.114;2022-10-16T16:34:50;21.40;1.00
22532;DHT22;11432;46.924;7.114;2022-10-16T16:37:16;21.30;1.00
22532;DHT22;11432;46.924;7.114;2022-10-16T16:39:41;21.20;1.00
22532;DHT22;11432;46.924;7.114;2022-10-16T16:42:07;21.10;1.00
22532;DHT22;11432;46.924;7.114;2022-10-16T16:44:33;21.10;1.00
22532;DHT22;11432;46.924;7.114;2022-10-16T16:47:02;21.10;1.00
22532;DHT22;11432;46.924;7.114;2022-10-16T16:49:28;21.00;99.90
22532;DHT22;11432;46.924;7.114;2022-10-16T16:51:54;20.90;99.90
22532;DHT22;11432;46.924;7.114;2022-10-16T16:54:20;20.90;99.90
22532;DHT22;11432;46.924;7.114;2022-10-16T16:56:46;20.70;99.90
22532;DHT22;11432;46.924;7.114;2022-10-16T16:59:13;20.40;99.90
22532;DHT22;11432;46.924;7.114;2022-10-16T17:01:40;20.10;99.90
22532;DHT22;11432;46.924;7.114;2022-10-16T17:04:06;19.90;99.90
22532;DHT22;11432;46.924;7.114;2022-10-16T17:06:31;19.80;99.90
22532;DHT22;11432;46.924;7.114;2022-10-16T17:08:58;19.60;99.90
22532;DHT22;11432;46.924;7.114;2022-10-16T17:11:26;19.50;99.90
22532;DHT22;11432;46.924;7.114;2022-10-16T17:13:53;19.40;1.00
22532;DHT22;11432;46.924;7.114;2022-10-16T17:16:20;19.30;99.90
22532;DHT22;11432;46.924;7.114;2022-10-16T17:18:45;19.30;1.00
22532;DHT22;11432;46.924;7.114;2022-10-16T17:21:18;19.10;99.90
22532;DHT22;11432;46.924;7.114;2022-10-16T17:23:52;19.00;1.00
22532;DHT22;11432;46.924;7.114;2022-10-16T17:26:18;18.80;1.00
22532;DHT22;11432;46.924;7.114;2022-10-16T17:28:44;18.70;1.00
22532;DHT22;11432;46.924;7.114;2022-10-16T17:31:15;18.60;1.00
22532;DHT22;11432;46.924;7.114;2022-10-16T17:33:41;18.50;1.00
22532;DHT22;11432;46.924;7.114;2022-10-16T17:36:07;18.40;1.00
22532;DHT22;11432;46.924;7.114;2022-10-16T17:38:34;18.30;1.00
22532;DHT22;11432;46.924;7.114;2022-10-16T17:41:20;18.20;1.00
22532;DHT22;11432;46.924;7.114;2022-10-16T17:43:46;18.10;1.00
22532;DHT22;11432;46.924;7.114;2022-10-16T17:46:13;18.10;1.00
22532;DHT22;11432;46.924;7.114;2022-10-16T17:48:41;18.00;1.00
22532;DHT22;11432;46.924;7.114;2022-10-16T17:51:09;17.90;1.00
22532;DHT22;11432;46.924;7.114;2022-10-16T17:53:36;17.80;1.00
22532;DHT22;11432;46.924;7.114;2022-10-16T17:56:10;17.70;1.00
22532;DHT22;11432;46.924;7.114;2022-10-16T17:58:37;17.60;1.00
22532;DHT22;11432;46.924;7.114;2022-10-16T18:03:38;17.50;1.00
22532;DHT22;11432;46.924;7.114;2022-10-16T18:06:03;17.40;1.00
22532;DHT22;11432;46.924;7.114;2022-10-16T18:08:29;17.40;1.00
22532;DHT22;11432;46.924;7.114;2022-10-16T18:10:55;17.40;1.00
22532;DHT22;11432;46.924;7.114;2022-10-16T18:13:21;17.30;1.00